Martin Challenger — WDB2346 — position and weather

sailwx.info

Track history (hours):
 
Tides and Currents Weather Stations Pressure Air Temp Water Temp Dewpoint Dewpoint Depression Visibility Wind Speed Wind Dir Waves Ship Positions

Martin Challenger

Owner: MARTIN OPERATING PARTNERSHIP LP, La Porte, TX. More information available from US FCC via Universal Licensing System and Coast Guard Vessel Documentation Center.

Last reported at 2018-Jan-19 23:54 UTC. Time now 2018-Jan-20 07:28 UTC.
Position N 29°50' W 091°50'.

Length 20 m.

MMSI: 366874920.

Date/timePositionNaut miles runAvg speedWind from/ knotsBaromVisibWave heightAir tempDewpointWater temp
2018-Jan-19 23:54N 29°50' W 091°50'7 3.4
2018-Jan-19 21:56N 29°50' W 091°58'3 4.7
2018-Jan-19 21:12N 29°49' W 092°01'1 4.7
2018-Jan-19 21:00N 29°49' W 092°02'2 4.6
2018-Jan-19 20:30N 29°48' W 092°05'2 4.7
2018-Jan-19 20:00N 29°47' W 092°07'2 4.4
2018-Jan-19 19:30N 29°47' W 092°10'2 3.5
2018-Jan-19 19:00N 29°47' W 092°12'1 1.3
2018-Jan-19 18:30N 29°47' W 092°12'1 1.2
2018-Jan-19 18:00N 29°47' W 092°13'1 2.3
2018-Jan-19 17:29N 29°48' W 092°14'0 0.0
2018-Jan-19 17:00N 29°48' W 092°14'1 2.5
2018-Jan-19 16:30N 29°48' W 092°16'2 4.2
2018-Jan-19 16:00N 29°50' W 092°18'36 4.0
2018-Jan-19 07:02N 29°56' W 092°58'0 3.9
2018-Jan-19 07:00N 29°56' W 092°58'2 4.1
2018-Jan-19 06:29N 29°56' W 093°01'2 4.1
2018-Jan-19 06:00N 29°56' W 093°03'2 4.1
2018-Jan-19 05:30N 29°56' W 093°06'2 4.0
2018-Jan-19 05:00N 29°56' W 093°08'2 3.4
2018-Jan-19 04:30N 29°56' W 093°10'2 4.2
2018-Jan-19 04:00N 29°58' W 093°11'2 4.3
2018-Jan-19 03:30N 29°60' W 093°13'2 3.9
2018-Jan-19 03:00N 30°01' W 093°14'2 3.8
2018-Jan-19 02:30N 30°02' W 093°16'1 2.5
2018-Jan-19 02:00N 30°04' W 093°16'2 3.7
2018-Jan-19 01:30N 30°05' W 093°17'1 1.3
2018-Jan-19 01:00N 30°06' W 093°18'1 1.1
2018-Jan-19 00:24N 30°06' W 093°18'0 0.0
2018-Jan-19 00:00N 30°06' W 093°18'0 0.0
2018-Jan-18 23:30N 30°06' W 093°18'0 0.0
2018-Jan-18 23:00N 30°06' W 093°18'0 0.1
2018-Jan-18 22:30N 30°06' W 093°18'0 0.3
2018-Jan-18 22:00N 30°06' W 093°18'0 0.1
2018-Jan-18 21:30N 30°06' W 093°18'0 0.9
2018-Jan-18 21:00N 30°06' W 093°19'2 3.7
2018-Jan-18 20:30N 30°05' W 093°20'1 2.9
2018-Jan-18 20:00N 30°04' W 093°21'2 4.0
2018-Jan-18 19:30N 30°04' W 093°24'2 4.7
2018-Jan-18 19:00N 30°04' W 093°26'2 4.6
2018-Jan-18 18:29N 30°04' W 093°29'2 4.5
2018-Jan-18 18:00N 30°04' W 093°32'4 4.5
2018-Jan-18 17:07N 30°04' W 093°36'  
2018-Jan-10 06:00N 30°03' W 093°43'4 5.8
2018-Jan-10 05:15N 30°04' W 093°39'2 5.8
2018-Jan-10 04:56N 30°04' W 093°36'3 5.8
2018-Jan-10 04:28N 30°04' W 093°33'3 5.9
2018-Jan-10 04:00N 30°04' W 093°30'3 5.4
2018-Jan-10 03:30N 30°04' W 093°27'3 5.4
2018-Jan-10 03:00N 30°04' W 093°24'2 4.6
2018-Jan-10 02:30N 30°04' W 093°21'1 1.4
2018-Jan-10 02:00N 30°04' W 093°21'0 0.2
2018-Jan-10 01:30N 30°04' W 093°21'0 0.0
2018-Jan-10 01:00N 30°04' W 093°21'0 0.0
2018-Jan-10 00:30N 30°04' W 093°21'0 0.0
2018-Jan-10 00:00N 30°04' W 093°21'  
Track history (hours):
 
Tides and Currents Weather Stations Pressure Air Temp Water Temp Dewpoint Dewpoint Depression Visibility Wind Speed Wind Dir Waves Ship Positions

Martin Challenger

Owner: MARTIN OPERATING PARTNERSHIP LP, La Porte, TX. More information available from US FCC via Universal Licensing System and Coast Guard Vessel Documentation Center.

Last reported at 2018-Jan-19 23:54 UTC. Time now 2018-Jan-20 07:28 UTC.
Position N 29°50' W 091°50'.

Length 20 m.

MMSI: 366874920.

Date/timePositionNaut miles runAvg speedWind from/ knotsBaromVisibWave heightAir tempDewpointWater temp
2018-Jan-19 23:54N 29°50' W 091°50'7 3.4
2018-Jan-19 21:56N 29°50' W 091°58'3 4.7
2018-Jan-19 21:12N 29°49' W 092°01'1 4.7
2018-Jan-19 21:00N 29°49' W 092°02'2 4.6
2018-Jan-19 20:30N 29°48' W 092°05'2 4.7
2018-Jan-19 20:00N 29°47' W 092°07'2 4.4
2018-Jan-19 19:30N 29°47' W 092°10'2 3.5
2018-Jan-19 19:00N 29°47' W 092°12'1 1.3
2018-Jan-19 18:30N 29°47' W 092°12'1 1.2
2018-Jan-19 18:00N 29°47' W 092°13'1 2.3
2018-Jan-19 17:29N 29°48' W 092°14'0 0.0
2018-Jan-19 17:00N 29°48' W 092°14'1 2.5
2018-Jan-19 16:30N 29°48' W 092°16'2 4.2
2018-Jan-19 16:00N 29°50' W 092°18'36 4.0
2018-Jan-19 07:02N 29°56' W 092°58'0 3.9
2018-Jan-19 07:00N 29°56' W 092°58'2 4.1
2018-Jan-19 06:29N 29°56' W 093°01'2 4.1
2018-Jan-19 06:00N 29°56' W 093°03'2 4.1
2018-Jan-19 05:30N 29°56' W 093°06'2 4.0
2018-Jan-19 05:00N 29°56' W 093°08'2 3.4
2018-Jan-19 04:30N 29°56' W 093°10'2 4.2
2018-Jan-19 04:00N 29°58' W 093°11'2 4.3
2018-Jan-19 03:30N 29°60' W 093°13'2 3.9
2018-Jan-19 03:00N 30°01' W 093°14'2 3.8
2018-Jan-19 02:30N 30°02' W 093°16'1 2.5
2018-Jan-19 02:00N 30°04' W 093°16'2 3.7
2018-Jan-19 01:30N 30°05' W 093°17'1 1.3
2018-Jan-19 01:00N 30°06' W 093°18'1 1.1
2018-Jan-19 00:24N 30°06' W 093°18'0 0.0
2018-Jan-19 00:00N 30°06' W 093°18'0 0.0
2018-Jan-18 23:30N 30°06' W 093°18'0 0.0
2018-Jan-18 23:00N 30°06' W 093°18'0 0.1
2018-Jan-18 22:30N 30°06' W 093°18'0 0.3
2018-Jan-18 22:00N 30°06' W 093°18'0 0.1
2018-Jan-18 21:30N 30°06' W 093°18'0 0.9
2018-Jan-18 21:00N 30°06' W 093°19'2 3.7
2018-Jan-18 20:30N 30°05' W 093°20'1 2.9
2018-Jan-18 20:00N 30°04' W 093°21'2 4.0
2018-Jan-18 19:30N 30°04' W 093°24'2 4.7
2018-Jan-18 19:00N 30°04' W 093°26'2 4.6
2018-Jan-18 18:29N 30°04' W 093°29'2 4.5
2018-Jan-18 18:00N 30°04' W 093°32'4 4.5
2018-Jan-18 17:07N 30°04' W 093°36'  
2018-Jan-10 06:00N 30°03' W 093°43'4 5.8
2018-Jan-10 05:15N 30°04' W 093°39'2 5.8
2018-Jan-10 04:56N 30°04' W 093°36'3 5.8
2018-Jan-10 04:28N 30°04' W 093°33'3 5.9
2018-Jan-10 04:00N 30°04' W 093°30'3 5.4
2018-Jan-10 03:30N 30°04' W 093°27'3 5.4
2018-Jan-10 03:00N 30°04' W 093°24'2 4.6
2018-Jan-10 02:30N 30°04' W 093°21'1 1.4
2018-Jan-10 02:00N 30°04' W 093°21'0 0.2
2018-Jan-10 01:30N 30°04' W 093°21'0 0.0
2018-Jan-10 01:00N 30°04' W 093°21'0 0.0
2018-Jan-10 00:30N 30°04' W 093°21'0 0.0
2018-Jan-10 00:00N 30°04' W 093°21'  

Dump ship's entire track history